Time;durP1;ratioP1;P1;durP2;ratioP2;P2;SDS_P1;SDS_P2;PMS_P1;PMS_P2;Temp;Humidity;BMP_temperature;BMP_pressure;BME280_temperature;BME280_humidity;BME280_pressure;Samples;Min_cycle;Max_cycle;Signal;HPM_P1;HPM_P2
2023/05/15 00:00:43;;;;;;;35.45;25.83;;;10.70;99.90;;;;;;5093094;28;20040;-62
2023/05/15 00:03:10;;;;;;;41.97;28.33;;;10.70;99.90;;;;;;5075003;28;20115;-62
2023/05/15 00:05:36;;;;;;;41.75;27.45;;;10.70;99.90;;;;;;5090930;28;20571;-62
2023/05/15 00:08:02;;;;;;;35.60;26.08;;;10.70;99.90;;;;;;5093372;28;20115;-62
2023/05/15 00:10:28;;;;;;;39.47;29.33;;;10.70;99.90;;;;;;5091327;28;20036;-63
2023/05/15 00:12:54;;;;;;;39.63;28.33;;;10.70;99.90;;;;;;5092343;28;20032;-62
2023/05/15 00:15:20;;;;;;;36.38;25.00;;;10.70;99.90;;;;;;5092707;28;20040;-62
2023/05/15 00:17:45;;;;;;;33.88;21.80;;;10.70;99.90;;;;;;5093181;28;20067;-62
2023/05/15 00:20:11;;;;;;;30.77;21.95;;;10.70;99.90;;;;;;5092011;28;20377;-62
2023/05/15 00:22:37;;;;;;;34.15;23.30;;;10.70;99.90;;;;;;5091584;28;20040;-62
2023/05/15 00:25:03;;;;;;;34.88;21.58;;;10.70;99.90;;;;;;5090814;28;20028;-63
2023/05/15 00:27:29;;;;;;;30.33;21.15;;;10.60;99.90;;;;;;5091070;28;20134;-62
2023/05/15 00:29:54;;;;;;;32.47;22.48;;;10.60;99.90;;;;;;5091596;28;20072;-63
2023/05/15 00:32:20;;;;;;;32.63;22.40;;;10.50;99.90;;;;;;5090407;28;20113;-62
2023/05/15 00:34:46;;;;;;;34.92;22.45;;;10.50;99.90;;;;;;5091584;28;20044;-62
2023/05/15 00:37:11;;;;;;;32.83;22.65;;;10.40;99.90;;;;;;5090342;28;20036;-62
2023/05/15 00:39:37;;;;;;;30.50;22.23;;;10.40;99.90;;;;;;5091456;28;20040;-62
2023/05/15 00:42:04;;;;;;;28.67;20.10;;;10.30;99.90;;;;;;5095658;28;20130;-62
2023/05/15 00:44:32;;;;;;;27.33;19.40;;;10.30;99.90;;;;;;5110969;28;20535;-63
2023/05/15 00:46:59;;;;;;;31.25;21.17;;;10.30;99.90;;;;;;5110914;28;20032;-62
2023/05/15 00:49:28;;;;;;;35.08;23.77;;;10.30;99.90;;;;;;5111175;28;20062;-62
2023/05/15 00:51:57;;;;;;;33.85;22.50;;;10.30;99.90;;;;;;5112080;28;20039;-62
2023/05/15 00:54:24;;;;;;;33.03;23.08;;;10.20;99.90;;;;;;5111598;28;20385;-62
2023/05/15 00:56:51;;;;;;;28.85;21.75;;;10.30;99.90;;;;;;5113037;28;20114;-62
2023/05/15 00:59:18;;;;;;;32.47;23.52;;;10.20;99.90;;;;;;5111231;28;20101;-62
2023/05/15 01:01:44;;;;;;;35.47;24.45;;;10.20;99.90;;;;;;5110603;28;20043;-62
2023/05/15 01:04:10;;;;;;;33.40;24.60;;;10.20;99.90;;;;;;5094303;28;20506;-62
2023/05/15 01:06:36;;;;;;;34.35;24.20;;;10.20;99.90;;;;;;5110985;28;20043;-62
2023/05/15 01:09:03;;;;;;;34.00;25.15;;;10.20;99.90;;;;;;5110710;28;20123;-62
2023/05/15 01:11:34;;;;;;;32.58;24.08;;;10.30;99.90;;;;;;5111945;28;20579;-62
2023/05/15 01:14:04;;;;;;;39.47;26.58;;;10.30;99.90;;;;;;5112801;28;20434;-62
2023/05/15 01:16:31;;;;;;;36.15;24.95;;;10.30;99.90;;;;;;5109993;28;20046;-62
2023/05/15 01:18:57;;;;;;;29.20;20.42;;;10.30;99.90;;;;;;5111009;28;20464;-62
2023/05/15 01:21:37;;;;;;;26.98;20.77;;;10.30;99.90;;;;;;5111124;28;20047;-62
2023/05/15 01:24:22;;;;;;;30.20;21.38;;;10.30;99.90;;;;;;5111568;28;20044;-62
2023/05/15 01:27:12;;;;;;;28.02;19.80;;;10.30;99.90;;;;;;5112789;28;20111;-63
2023/05/15 01:30:02;;;;;;;27.58;20.52;;;10.20;99.90;;;;;;5071554;28;20059;-62
2023/05/15 01:32:53;;;;;;;33.70;23.70;;;10.20;99.90;;;;;;5093328;28;20054;-62
2023/05/15 01:35:39;;;;;;;29.85;21.52;;;10.20;99.90;;;;;;5110339;28;20062;-62
2023/05/15 01:38:21;;;;;;;28.85;19.13;;;10.20;99.90;;;;;;5111239;28;20504;-62
2023/05/15 01:40:55;;;;;;;31.75;23.90;;;10.20;99.90;;;;;;5111465;28;20043;-62
2023/05/15 01:43:25;;;;;;;31.20;22.92;;;10.10;99.90;;;;;;5109623;28;20063;-62
2023/05/15 01:45:52;;;;;;;32.75;23.95;;;10.10;99.90;;;;;;5094095;28;20054;-63
2023/05/15 01:48:18;;;;;;;31.45;22.50;;;10.10;99.90;;;;;;5111083;28;20115;-62
2023/05/15 01:50:46;;;;;;;31.05;21.65;;;10.10;99.90;;;;;;5114376;28;20434;-62
2023/05/15 01:53:12;;;;;;;28.00;20.92;;;10.10;99.90;;;;;;5097750;28;20035;-62
2023/05/15 01:55:40;;;;;;;26.45;19.35;;;10.00;99.90;;;;;;5114853;28;20527;-62
2023/05/15 01:58:07;;;;;;;27.00;19.95;;;9.90;99.90;;;;;;5114280;28;20040;-62
2023/05/15 02:00:33;;;;;;;29.52;20.33;;;9.90;99.90;;;;;;5114599;28;20043;-62
2023/05/15 02:03:00;;;;;;;27.05;20.20;;;9.90;99.90;;;;;;5116107;28;20159;-62
2023/05/15 02:05:26;;;;;;;30.17;20.95;;;9.90;99.90;;;;;;5114633;28;20044;-62
2023/05/15 02:07:53;;;;;;;32.28;23.20;;;9.90;99.90;;;;;;5115097;28;20032;-62
2023/05/15 02:10:19;;;;;;;32.80;23.65;;;9.90;99.90;;;;;;5114509;28;20071;-62
2023/05/15 02:12:45;;;;;;;38.45;26.67;;;9.90;99.90;;;;;;5115081;28;20097;-62
2023/05/15 02:15:12;;;;;;;34.22;25.92;;;9.90;99.90;;;;;;5114293;28;20434;-62
2023/05/15 02:17:38;;;;;;;40.72;27.98;;;9.90;99.90;;;;;;5114733;27;20510;-62
2023/05/15 02:20:05;;;;;;;36.30;24.65;;;9.90;99.90;;;;;;5114900;28;20075;-62
2023/05/15 02:22:30;;;;;;;37.88;27.98;;;10.00;99.90;;;;;;5082391;28;20044;-63
2023/05/15 02:24:56;;;;;;;37.67;23.83;;;10.00;99.90;;;;;;5093466;28;20520;-62
2023/05/15 02:27:26;;;;;;;33.90;23.42;;;10.10;99.90;;;;;;5094647;28;20066;-62
2023/05/15 02:29:57;;;;;;;34.67;26.15;;;10.10;99.90;;;;;;5094010;28;20040;-63
2023/05/15 02:32:53;;;;;;;37.90;25.00;;;10.20;99.90;;;;;;5075676;28;20042;-62
2023/05/15 02:35:51;;;;;;;32.75;23.20;;;10.20;99.90;;;;;;5094928;28;20040;-63
2023/05/15 02:38:23;;;;;;;27.65;22.02;;;10.20;99.90;;;;;;5094761;28;20046;-63
2023/05/15 02:40:50;;;;;;;26.55;20.08;;;10.30;99.90;;;;;;5076133;28;20093;-62
2023/05/15 02:43:17;;;;;;;22.92;17.27;;;10.30;99.90;;;;;;5093437;28;20063;-62
2023/05/15 02:45:45;;;;;;;24.58;18.25;;;10.30;99.90;;;;;;5094724;28;20488;-62
2023/05/15 02:48:12;;;;;;;24.08;17.90;;;10.40;99.90;;;;;;5096699;28;20065;-63
2023/05/15 02:50:38;;;;;;;21.55;15.85;;;10.40;99.90;;;;;;5113650;28;20043;-63
2023/05/15 02:53:04;;;;;;;22.48;17.20;;;10.40;99.90;;;;;;5113079;28;20115;-62
2023/05/15 02:55:30;;;;;;;21.00;15.85;;;10.40;99.90;;;;;;5113199;28;20043;-62
2023/05/15 02:57:57;;;;;;;21.77;16.40;;;10.50;99.90;;;;;;5113840;28;20043;-63
2023/05/15 03:00:23;;;;;;;21.88;15.88;;;10.50;99.90;;;;;;5111687;28;20108;-62
2023/05/15 03:02:49;;;;;;;21.83;16.90;;;10.50;99.90;;;;;;5115157;28;20104;-62
2023/05/15 03:05:14;;;;;;;23.30;17.83;;;10.50;99.90;;;;;;5114624;28;20047;-63
2023/05/15 03:07:41;;;;;;;23.02;17.25;;;10.60;99.90;;;;;;5099070;28;20036;-62
2023/05/15 03:10:07;;;;;;;23.38;15.70;;;10.50;99.90;;;;;;5094513;28;20052;-63
2023/05/15 03:12:33;;;;;;;21.70;17.30;;;10.50;99.90;;;;;;5092883;28;20120;-62
2023/05/15 03:14:59;;;;;;;19.20;15.45;;;10.50;99.90;;;;;;5092687;28;20086;-62
2023/05/15 03:17:24;;;;;;;22.73;17.50;;;10.50;99.90;;;;;;5092600;28;20040;-62
2023/05/15 03:19:50;;;;;;;20.52;16.73;;;10.50;99.90;;;;;;5093270;28;20044;-62
2023/05/15 03:22:15;;;;;;;21.27;15.80;;;10.50;99.90;;;;;;5093306;28;20057;-62
2023/05/15 03:24:41;;;;;;;21.48;16.20;;;10.50;99.90;;;;;;5093769;28;20048;-62
2023/05/15 03:27:07;;;;;;;18.35;15.13;;;10.50;99.90;;;;;;5092790;28;20036;-62
2023/05/15 03:29:33;;;;;;;23.13;18.38;;;10.40;99.90;;;;;;5092036;28;20080;-62
2023/05/15 03:31:58;;;;;;;20.50;17.27;;;10.40;99.90;;;;;;5092805;28;20035;-62
2023/05/15 03:34:24;;;;;;;22.67;16.23;;;10.40;99.90;;;;;;5093096;28;20040;-62
2023/05/15 03:36:49;;;;;;;24.83;17.77;;;10.40;99.90;;;;;;5092134;28;20101;-63
2023/05/15 03:39:15;;;;;;;20.95;16.90;;;10.40;99.90;;;;;;5092286;28;20044;-62
2023/05/15 03:41:41;;;;;;;21.10;16.70;;;10.40;99.90;;;;;;5093529;28;20142;-63
2023/05/15 03:44:06;;;;;;;23.35;18.08;;;10.40;99.90;;;;;;5092900;28;20086;-62
2023/05/15 03:46:32;;;;;;;23.10;17.02;;;10.40;99.90;;;;;;5075205;28;20040;-62
2023/05/15 03:48:58;;;;;;;20.13;16.08;;;10.40;99.90;;;;;;5091965;28;20075;-62
2023/05/15 03:51:23;;;;;;;21.67;16.88;;;10.40;99.90;;;;;;5091557;28;20040;-62
2023/05/15 03:53:49;;;;;;;22.90;18.85;;;10.50;99.90;;;;;;5090171;28;20038;-62
2023/05/15 03:56:15;;;;;;;26.17;20.23;;;10.50;99.90;;;;;;5111655;28;20189;-62
2023/05/15 03:58:40;;;;;;;25.52;19.70;;;10.50;99.90;;;;;;5112606;28;20039;-63
2023/05/15 04:01:06;;;;;;;23.33;18.30;;;10.50;99.90;;;;;;5113958;28;20031;-62
2023/05/15 04:03:32;;;;;;;26.55;21.17;;;10.60;99.90;;;;;;5094105;28;20507;-63
2023/05/15 04:05:58;;;;;;;26.52;20.08;;;10.60;99.90;;;;;;5104872;27;20036;-63
2023/05/15 04:08:23;;;;;;;21.20;16.80;;;10.60;99.90;;;;;;5092739;28;20032;-63
2023/05/15 04:10:49;;;;;;;21.52;16.73;;;10.60;99.90;;;;;;5074424;28;20032;-62
2023/05/15 04:13:15;;;;;;;23.05;17.83;;;10.50;99.90;;;;;;5074552;28;20036;-62
2023/05/15 04:15:41;;;;;;;24.00;19.65;;;10.50;99.90;;;;;;5091831;28;20040;-62
2023/05/15 04:18:06;;;;;;;25.95;17.95;;;10.60;99.90;;;;;;5101626;28;20035;-62
2023/05/15 04:20:32;;;;;;;24.42;19.90;;;10.50;99.90;;;;;;5111844;28;20043;-62
2023/05/15 04:22:58;;;;;;;26.25;20.38;;;10.60;99.90;;;;;;5112102;28;20043;-63
2023/05/15 04:25:24;;;;;;;24.92;19.35;;;10.50;99.90;;;;;;5110990;28;20040;-62
2023/05/15 04:27:50;;;;;;;20.38;17.45;;;10.50;99.90;;;;;;5113506;28;20567;-63
2023/05/15 04:30:16;;;;;;;22.63;18.08;;;10.50;99.90;;;;;;5112005;28;20083;-63
2023/05/15 04:32:41;;;;;;;20.60;16.13;;;10.50;99.90;;;;;;5110743;28;20031;-62
2023/05/15 04:35:09;;;;;;;24.60;17.52;;;10.50;99.90;;;;;;5108122;28;20430;-63
2023/05/15 04:37:41;;;;;;;21.33;16.70;;;10.50;99.90;;;;;;5092721;28;20047;-63
2023/05/15 04:40:08;;;;;;;24.17;18.77;;;10.50;99.90;;;;;;5091022;28;20036;-63
2023/05/15 04:42:35;;;;;;;22.48;17.50;;;10.50;99.90;;;;;;5093372;28;20132;-62
2023/05/15 04:45:01;;;;;;;19.67;15.57;;;10.50;99.90;;;;;;5074559;28;20048;-63
2023/05/15 04:47:27;;;;;;;22.38;18.23;;;10.50;99.90;;;;;;5089845;28;20150;-62
2023/05/15 04:49:53;;;;;;;20.30;16.20;;;10.50;99.90;;;;;;5091465;28;20118;-62
2023/05/15 04:52:18;;;;;;;21.52;16.70;;;10.50;99.90;;;;;;5090434;28;20501;-63
2023/05/15 04:54:46;;;;;;;25.02;15.57;;;10.60;99.90;;;;;;5092450;28;20569;-62
2023/05/15 04:57:12;;;;;;;25.33;15.45;;;10.60;99.90;;;;;;5092249;28;20039;-62
2023/05/15 04:59:38;;;;;;;25.92;17.83;;;10.60;99.90;;;;;;5091316;28;20054;-63
2023/05/15 05:02:03;;;;;;;24.85;17.05;;;10.70;99.90;;;;;;5092459;28;20127;-62
2023/05/15 05:04:29;;;;;;;25.02;18.42;;;10.80;99.90;;;;;;5090595;28;20119;-62
2023/05/15 05:06:55;;;;;;;25.15;18.23;;;10.80;99.90;;;;;;5090184;28;20058;-62
2023/05/15 05:09:20;;;;;;;22.25;17.52;;;10.90;99.90;;;;;;5090645;28;20032;-63
2023/05/15 05:11:46;;;;;;;23.23;17.95;;;10.90;99.90;;;;;;5074564;28;20039;-63
2023/05/15 05:14:13;;;;;;;21.38;16.77;;;10.90;99.90;;;;;;5091144;28;20044;-63
2023/05/15 05:16:40;;;;;;;22.17;16.88;;;10.90;99.90;;;;;;5091896;28;20036;-62
2023/05/15 05:19:05;;;;;;;21.58;16.58;;;11.00;99.90;;;;;;5091135;28;20044;-62
2023/05/15 05:21:32;;;;;;;26.80;18.58;;;11.00;99.90;;;;;;5089816;28;20044;-63
2023/05/15 05:23:58;;;;;;;20.42;17.42;;;11.00;99.90;;;;;;5092409;28;20040;-63
2023/05/15 05:26:25;;;;;;;24.13;15.48;;;11.00;99.90;;;;;;5096013;28;20039;-62
2023/05/15 05:28:50;;;;;;;22.95;16.35;;;11.00;99.90;;;;;;5094530;28;20115;-63
2023/05/15 05:31:16;;;;;;;25.38;17.67;;;11.10;99.90;;;;;;5077968;28;20046;-63
2023/05/15 05:33:42;;;;;;;23.75;17.98;;;11.10;99.90;;;;;;5096189;28;20055;-63
2023/05/15 05:36:08;;;;;;;23.77;18.75;;;11.20;99.90;;;;;;5094318;28;20059;-63
2023/05/15 05:38:35;;;;;;;15.55;12.50;;;11.30;99.90;;;;;;5094804;28;20535;-63
2023/05/15 05:41:00;;;;;;;20.48;13.32;;;11.30;99.90;;;;;;5095235;28;20059;-62
2023/05/15 05:43:26;;;;;;;18.23;13.95;;;11.40;99.90;;;;;;5093528;28;20456;-62
2023/05/15 05:45:52;;;;;;;17.50;13.48;;;11.50;99.90;;;;;;5095870;28;20083;-62
2023/05/15 05:48:18;;;;;;;17.40;14.80;;;11.40;99.90;;;;;;5094503;28;20396;-62
2023/05/15 05:50:44;;;;;;;17.83;13.82;;;11.40;99.90;;;;;;5093777;28;20047;-62
2023/05/15 05:53:10;;;;;;;15.60;12.50;;;11.30;99.90;;;;;;5094099;28;20036;-62
2023/05/15 05:55:35;;;;;;;16.63;11.68;;;11.30;99.90;;;;;;5076605;28;20075;-62
2023/05/15 05:58:02;;;;;;;15.93;11.82;;;11.30;99.90;;;;;;5096125;28;20412;-62
2023/05/15 06:00:28;;;;;;;15.98;13.40;;;11.30;99.90;;;;;;5103545;28;20081;-62
2023/05/15 06:02:58;;;;;;;18.25;14.00;;;11.30;99.90;;;;;;5076840;28;20475;-63
2023/05/15 06:05:24;;;;;;;21.48;14.43;;;11.30;99.90;;;;;;5095321;28;20048;-63
2023/05/15 06:07:51;;;;;;;15.45;12.50;;;11.40;99.90;;;;;;5077559;28;20040;-63
2023/05/15 06:10:18;;;;;;;14.60;12.02;;;11.40;99.90;;;;;;5093469;27;20036;-63
2023/05/15 06:12:44;;;;;;;13.32;10.07;;;11.50;99.90;;;;;;5112058;28;20042;-63
2023/05/15 06:15:10;;;;;;;15.50;10.73;;;11.50;99.90;;;;;;5113492;28;20112;-63
2023/05/15 06:17:36;;;;;;;15.77;10.27;;;11.50;99.90;;;;;;5109836;28;20044;-63
2023/05/15 06:20:04;;;;;;;13.05;10.27;;;11.50;99.90;;;;;;5106667;28;20476;-63
2023/05/15 06:22:31;;;;;;;12.65;10.18;;;11.50;99.90;;;;;;5093772;28;20055;-63
2023/05/15 06:24:57;;;;;;;13.80;9.85;;;11.50;99.90;;;;;;5111031;28;20050;-63
2023/05/15 06:27:26;;;;;;;12.65;9.73;;;11.60;99.90;;;;;;5110935;28;20043;-63
2023/05/15 06:29:52;;;;;;;11.45;8.60;;;11.60;99.90;;;;;;5111023;28;20108;-63
2023/05/15 06:32:17;;;;;;;13.77;9.70;;;11.70;99.90;;;;;;5109826;28;20392;-63
2023/05/15 06:34:43;;;;;;;13.32;10.02;;;11.70;99.90;;;;;;5109737;28;20053;-63
2023/05/15 06:37:10;;;;;;;11.75;8.57;;;11.80;99.90;;;;;;5104679;28;20077;-63
2023/05/15 06:39:36;;;;;;;12.98;9.68;;;12.00;99.90;;;;;;5110288;28;20104;-63
2023/05/15 06:42:01;;;;;;;13.05;9.80;;;12.00;99.90;;;;;;5094747;28;20051;-63
2023/05/15 06:44:29;;;;;;;15.20;10.45;;;12.10;99.90;;;;;;5084854;28;20378;-63
2023/05/15 06:46:55;;;;;;;11.75;8.90;;;12.10;99.90;;;;;;5103444;27;20049;-64
2023/05/15 06:49:21;;;;;;;13.70;10.88;;;12.10;99.90;;;;;;5107533;27;20115;-63
2023/05/15 06:51:47;;;;;;;12.32;9.15;;;12.10;99.90;;;;;;5111746;28;20644;-63
2023/05/15 06:54:13;;;;;;;16.63;9.90;;;12.20;99.90;;;;;;5094282;28;20141;-63
2023/05/15 06:56:39;;;;;;;14.65;10.80;;;12.30;99.90;;;;;;5109964;28;20764;-63
2023/05/15 06:59:04;;;;;;;15.27;10.40;;;12.40;99.90;;;;;;5111591;28;20150;-63
2023/05/15 07:01:30;;;;;;;12.57;9.32;;;12.40;99.90;;;;;;5081808;28;20116;-63
2023/05/15 07:03:56;;;;;;;11.98;9.20;;;12.50;99.90;;;;;;5110853;28;20047;-63
2023/05/15 07:06:22;;;;;;;10.52;7.93;;;12.50;99.90;;;;;;5104223;28;20040;-63
2023/05/15 07:08:48;;;;;;;14.35;9.93;;;12.50;99.90;;;;;;5107637;28;20031;-63
2023/05/15 07:11:14;;;;;;;14.75;10.43;;;12.50;99.90;;;;;;5096935;28;20062;-63
2023/05/15 07:13:39;;;;;;;13.50;10.65;;;12.50;99.90;;;;;;5109813;28;20484;-63
2023/05/15 07:16:05;;;;;;;13.82;10.77;;;12.50;99.90;;;;;;5093757;28;20120;-63
2023/05/15 07:18:31;;;;;;;14.52;11.18;;;12.40;99.90;;;;;;5093054;28;20035;-63
2023/05/15 07:20:56;;;;;;;15.65;11.73;;;12.40;99.90;;;;;;5102351;28;20085;-63
2023/05/15 07:23:22;;;;;;;15.27;11.82;;;12.40;99.90;;;;;;5091952;28;20036;-63
2023/05/15 07:25:48;;;;;;;13.52;10.93;;;12.40;99.90;;;;;;5073890;28;20044;-63
2023/05/15 07:28:13;;;;;;;13.75;10.73;;;12.30;99.90;;;;;;5109750;28;20040;-63
2023/05/15 07:30:40;;;;;;;14.55;11.40;;;12.30;99.90;;;;;;5089305;28;20048;-63
2023/05/15 07:33:05;;;;;;;14.02;11.75;;;12.30;99.90;;;;;;5092307;28;20048;-63
2023/05/15 07:35:31;;;;;;;15.50;12.55;;;12.40;99.90;;;;;;5108813;28;20116;-63
2023/05/15 07:37:57;;;;;;;14.20;11.70;;;12.40;99.90;;;;;;5111719;28;20472;-63
2023/05/15 07:40:22;;;;;;;15.52;12.55;;;12.50;99.90;;;;;;5103478;28;20040;-63
2023/05/15 07:42:48;;;;;;;15.18;11.90;;;12.70;99.90;;;;;;5089209;28;20064;-63
2023/05/15 07:45:15;;;;;;;15.52;13.23;;;12.80;99.90;;;;;;5090328;28;20036;-63
2023/05/15 07:47:45;;;;;;;13.25;11.27;;;12.90;99.90;;;;;;5098881;28;20782;-63
2023/05/15 07:50:12;;;;;;;19.55;12.50;;;12.90;99.90;;;;;;5093942;28;20044;-63
2023/05/15 07:52:37;;;;;;;19.15;13.38;;;12.80;99.90;;;;;;5094163;28;20067;-63
2023/05/15 07:55:03;;;;;;;16.52;11.50;;;12.80;99.90;;;;;;5109718;28;20078;-63
2023/05/15 07:57:30;;;;;;;16.52;11.80;;;12.90;99.90;;;;;;5095739;28;20046;-63
2023/05/15 07:59:56;;;;;;;14.82;11.18;;;12.90;99.90;;;;;;5101018;28;20079;-63
2023/05/15 08:02:22;;;;;;;15.60;12.82;;;13.10;99.90;;;;;;5097905;28;20035;-63
2023/05/15 08:04:48;;;;;;;16.02;11.40;;;13.10;99.90;;;;;;5096404;28;20039;-63
2023/05/15 08:07:14;;;;;;;17.30;12.93;;;13.20;99.90;;;;;;5089667;28;20397;-63
2023/05/15 08:09:40;;;;;;;12.82;9.63;;;13.40;99.90;;;;;;5088555;28;20122;-63
2023/05/15 08:12:19;;;;;;;12.73;10.13;;;13.50;99.90;;;;;;5120324;27;20062;-63
2023/05/15 08:14:50;;;;;;;14.15;11.13;;;13.70;99.90;;;;;;5091932;28;20044;-62
2023/05/15 08:17:16;;;;;;;19.42;13.07;;;13.80;99.90;;;;;;5091054;28;20043;-64
2023/05/15 08:19:42;;;;;;;18.30;13.25;;;14.00;99.90;;;;;;5092848;28;20032;-64
2023/05/15 08:22:08;;;;;;;14.35;12.48;;;14.20;99.90;;;;;;5074989;28;20044;-64
2023/05/15 08:24:33;;;;;;;19.58;12.20;;;14.40;99.90;;;;;;5096593;28;20396;-63
2023/05/15 08:26:59;;;;;;;17.98;13.10;;;14.60;99.90;;;;;;5098460;28;20101;-64
2023/05/15 08:29:25;;;;;;;13.77;11.82;;;14.70;99.90;;;;;;5091218;28;20189;-64
2023/05/15 08:31:51;;;;;;;13.50;10.60;;;14.90;99.90;;;;;;5107615;28;20036;-63
2023/05/15 08:34:17;;;;;;;15.98;11.50;;;15.10;99.90;;;;;;5113320;28;20035;-63
2023/05/15 08:36:44;;;;;;;14.10;11.48;;;15.20;99.90;;;;;;5111739;28;20071;-64
2023/05/15 08:39:10;;;;;;;16.02;10.55;;;15.20;99.90;;;;;;5110760;28;20054;-63
2023/05/15 08:41:47;;;;;;;13.52;10.32;;;15.40;99.90;;;;;;5093695;28;20052;-64
2023/05/15 08:44:13;;;;;;;11.68;10.20;;;15.60;99.90;;;;;;5091120;28;20047;-63
2023/05/15 08:46:39;;;;;;;13.68;11.45;;;15.50;99.90;;;;;;5091988;28;20044;-63
2023/05/15 08:49:24;;;;;;;12.88;9.57;;;15.60;99.90;;;;;;5102684;28;20449;-64
2023/05/15 08:51:51;;;;;;;13.45;10.73;;;15.70;99.90;;;;;;5074313;28;20063;-63
2023/05/15 08:54:17;;;;;;;12.15;9.60;;;15.50;99.90;;;;;;5074223;28;20040;-63
2023/05/15 08:56:43;;;;;;;12.18;10.65;;;15.50;99.90;;;;;;5124811;27;20040;-63
2023/05/15 08:59:09;;;;;;;13.38;10.23;;;15.40;99.90;;;;;;5089706;28;20040;-63
2023/05/15 09:01:35;;;;;;;11.50;9.13;;;15.40;99.90;;;;;;5091509;28;20044;-63
2023/05/15 09:04:01;;;;;;;14.75;10.63;;;15.30;99.90;;;;;;5091308;28;20044;-63
2023/05/15 09:06:27;;;;;;;13.85;10.55;;;15.20;99.90;;;;;;5093924;28;20038;-64
2023/05/15 09:08:55;;;;;;;14.60;11.98;;;15.20;99.90;;;;;;5097311;28;20078;-63
2023/05/15 09:11:24;;;;;;;14.27;10.88;;;15.10;99.90;;;;;;5090983;28;20539;-63
2023/05/15 09:13:49;;;;;;;16.02;12.90;;;15.10;99.90;;;;;;5074998;28;20089;-63
2023/05/15 09:16:15;;;;;;;17.08;12.98;;;15.20;99.90;;;;;;5110860;28;20039;-63
2023/05/15 09:18:42;;;;;;;13.77;12.00;;;15.10;99.90;;;;;;5111558;28;20028;-63
2023/05/15 09:21:28;;;;;;;17.05;13.40;;;15.10;99.90;;;;;;5090064;28;20051;-63
2023/05/15 09:23:57;;;;;;;15.70;13.38;;;15.10;99.90;;;;;;5090855;28;20036;-66
2023/05/15 09:26:23;;;;;;;18.10;14.10;;;15.00;99.90;;;;;;5090766;28;20036;-66
2023/05/15 09:28:48;;;;;;;17.30;13.80;;;15.00;99.90;;;;;;5091514;28;20077;-64
2023/05/15 09:31:19;;;;;;;16.60;13.25;;;15.00;99.90;;;;;;5075155;28;20435;-65
2023/05/15 09:33:45;;;;;;;15.77;13.70;;;14.90;99.90;;;;;;5091563;28;20473;-65
2023/05/15 09:36:20;;;;;;;16.45;12.30;;;14.90;99.90;;;;;;5091051;28;20093;-67
2023/05/15 09:38:47;;;;;;;16.63;12.98;;;14.90;99.90;;;;;;5091079;28;20241;-65
2023/05/15 09:41:13;;;;;;;13.68;10.98;;;14.90;99.90;;;;;;5089608;28;20040;-67
2023/05/15 09:43:40;;;;;;;14.25;10.63;;;15.00;99.90;;;;;;5092290;28;20070;-67
2023/05/15 09:46:11;;;;;;;13.43;10.05;;;15.10;99.90;;;;;;5094834;28;20032;-61
2023/05/15 09:48:37;;;;;;;13.43;10.85;;;15.10;99.90;;;;;;5099191;28;20043;-62
2023/05/15 09:51:06;;;;;;;14.60;9.80;;;15.10;99.90;;;;;;5093469;28;20032;-62
2023/05/15 09:53:32;;;;;;;12.57;10.45;;;15.10;99.90;;;;;;5073774;28;20389;-63
2023/05/15 09:55:57;;;;;;;17.58;9.70;;;15.10;99.90;;;;;;5089988;28;20032;-64
2023/05/15 09:58:23;;;;;;;11.98;9.52;;;15.20;99.90;;;;;;5124321;28;20035;-64
2023/05/15 10:00:49;;;;;;;12.80;10.52;;;15.20;99.90;;;;;;5074285;28;20127;-64
2023/05/15 10:03:20;;;;;;;15.35;10.05;;;15.30;99.90;;;;;;5090821;28;20040;-66
2023/05/15 10:05:46;;;;;;;11.00;8.95;;;15.10;99.90;;;;;;5107945;28;20040;-65
2023/05/15 10:08:13;;;;;;;12.52;9.15;;;15.10;99.90;;;;;;5104145;28;20025;-65
2023/05/15 10:10:40;;;;;;;14.35;8.90;;;15.00;99.90;;;;;;5091987;28;20050;-64
2023/05/15 10:13:08;;;;;;;12.32;9.45;;;15.10;99.90;;;;;;5077676;28;20098;-64
2023/05/15 10:15:34;;;;;;;11.15;9.25;;;15.10;99.90;;;;;;5105283;28;20035;-65
2023/05/15 10:18:02;;;;;;;11.43;8.55;;;15.10;99.90;;;;;;5113821;28;20046;-63
2023/05/15 10:20:28;;;;;;;12.80;9.40;;;14.90;99.90;;;;;;5115654;28;20086;-63
2023/05/15 10:22:55;;;;;;;11.18;9.75;;;14.90;99.90;;;;;;5096980;28;20468;-65
2023/05/15 10:25:27;;;;;;;12.32;10.13;;;14.80;99.90;;;;;;5109827;28;20032;-64
2023/05/15 10:27:53;;;;;;;12.13;8.55;;;14.80;99.90;;;;;;5087747;28;20040;-63
2023/05/15 10:30:20;;;;;;;12.65;9.63;;;14.70;99.90;;;;;;5108032;28;20114;-63
2023/05/15 10:32:48;;;;;;;14.27;10.05;;;14.90;99.90;;;;;;5114429;27;20051;-63
2023/05/15 10:35:15;;;;;;;11.52;9.68;;;15.00;99.90;;;;;;5114933;28;20031;-63
2023/05/15 10:37:42;;;;;;;11.20;9.02;;;15.20;99.90;;;;;;5113684;27;20066;-63
2023/05/15 10:40:09;;;;;;;11.82;9.15;;;15.40;99.90;;;;;;5104242;28;20039;-63
2023/05/15 10:42:36;;;;;;;12.35;9.80;;;15.50;99.90;;;;;;5112924;28;20051;-62
2023/05/15 10:45:04;;;;;;;10.43;8.38;;;15.60;99.90;;;;;;5113506;28;20059;-62
2023/05/15 10:47:31;;;;;;;12.23;9.20;;;15.50;99.90;;;;;;5113766;28;20035;-66
2023/05/15 10:49:57;;;;;;;12.05;9.30;;;15.50;99.90;;;;;;5103067;28;20028;-63
2023/05/15 10:52:23;;;;;;;11.25;9.55;;;15.40;99.90;;;;;;5109336;28;20108;-64
2023/05/15 10:54:51;;;;;;;14.07;9.75;;;15.30;99.90;;;;;;5082214;28;20485;-63
2023/05/15 10:57:17;;;;;;;11.27;9.50;;;15.20;99.90;;;;;;5090942;28;20404;-62
2023/05/15 10:59:43;;;;;;;12.98;9.60;;;15.20;99.90;;;;;;5092685;28;20050;-63
2023/05/15 11:02:19;;;;;;;13.40;9.80;;;15.10;99.90;;;;;;5119847;27;20058;-64
2023/05/15 11:04:45;;;;;;;10.60;8.77;;;15.10;99.90;;;;;;5139533;27;20094;-63
2023/05/15 11:07:13;;;;;;;12.45;9.30;;;15.00;99.90;;;;;;5123195;27;20396;-63
2023/05/15 11:09:39;;;;;;;13.77;10.02;;;15.00;99.90;;;;;;5110745;27;20035;-63
2023/05/15 11:12:20;;;;;;;11.93;9.57;;;15.10;99.90;;;;;;5088839;28;20059;-63
2023/05/15 11:14:55;;;;;;;10.57;9.30;;;15.20;99.90;;;;;;5092490;28;20113;-62
2023/05/15 11:17:24;;;;;;;11.52;8.63;;;15.10;99.90;;;;;;5093683;28;20067;-63
2023/05/15 11:19:50;;;;;;;16.08;9.80;;;15.20;99.90;;;;;;5102910;28;20040;-63
2023/05/15 11:22:40;;;;;;;9.63;7.80;;;15.20;99.90;;;;;;5112879;28;20044;-61
2023/05/15 11:25:13;;;;;;;10.65;8.20;;;15.20;99.90;;;;;;5108564;28;20047;-62
2023/05/15 11:27:42;;;;;;;9.55;7.53;;;15.20;99.90;;;;;;5092479;28;20078;-61
2023/05/15 11:30:21;;;;;;;11.13;7.05;;;15.10;99.90;;;;;;5127135;27;20047;-62
2023/05/15 11:32:46;;;;;;;10.05;7.85;;;15.00;99.90;;;;;;5094568;28;20036;-62
2023/05/15 11:35:31;;;;;;;10.02;7.18;;;15.00;99.90;;;;;;5091852;28;20496;-62
2023/05/15 11:38:13;;;;;;;10.05;7.93;;;14.90;99.90;;;;;;5120567;27;20041;-64
2023/05/15 11:40:51;;;;;;;11.63;8.18;;;14.90;99.90;;;;;;5124791;27;20047;-63
2023/05/15 11:43:27;;;;;;;11.93;7.50;;;15.00;99.90;;;;;;5075345;28;20096;-63
2023/05/15 11:45:57;;;;;;;10.23;7.88;;;14.90;99.90;;;;;;5093821;28;20127;-64
2023/05/15 11:48:24;;;;;;;10.20;7.80;;;14.80;99.90;;;;;;5074169;28;20048;-64
2023/05/15 11:50:52;;;;;;;12.35;8.32;;;14.80;99.90;;;;;;5093833;28;20127;-64
2023/05/15 11:53:18;;;;;;;11.82;7.55;;;14.70;99.90;;;;;;5126280;27;20036;-64
2023/05/15 11:55:45;;;;;;;14.60;9.07;;;14.70;99.90;;;;;;5125861;27;20388;-64
2023/05/15 11:58:15;;;;;;;11.63;7.78;;;14.60;99.90;;;;;;5092107;28;20047;-64
2023/05/15 12:00:46;;;;;;;10.18;8.00;;;14.70;99.90;;;;;;5075340;28;20043;-64
2023/05/15 12:03:19;;;;;;;9.55;8.10;;;14.80;99.90;;;;;;5092548;28;20050;-64
2023/05/15 12:05:44;;;;;;;12.50;8.07;;;14.80;99.90;;;;;;5126219;27;20412;-64
2023/05/15 12:08:11;;;;;;;9.13;7.25;;;14.70;99.90;;;;;;5074985;28;20090;-64
2023/05/15 12:10:42;;;;;;;10.98;8.38;;;14.70;99.90;;;;;;5125293;27;20040;-64
2023/05/15 12:13:16;;;;;;;9.95;7.53;;;14.70;99.90;;;;;;5075376;28;20101;-64
2023/05/15 12:15:43;;;;;;;10.23;7.72;;;14.80;99.90;;;;;;5074383;28;20427;-64
2023/05/15 12:18:09;;;;;;;8.95;6.68;;;14.90;99.90;;;;;;5091785;28;20048;-64
2023/05/15 12:20:37;;;;;;;10.82;7.25;;;15.00;99.90;;;;;;5074980;28;20366;-64
2023/05/15 12:23:04;;;;;;;8.27;6.03;;;15.00;99.90;;;;;;5125616;27;20035;-64
2023/05/15 12:25:32;;;;;;;8.80;7.45;;;14.90;99.90;;;;;;5091402;28;20044;-63
2023/05/15 12:28:00;;;;;;;13.95;7.30;;;14.90;99.90;;;;;;5125969;27;20111;-64
2023/05/15 12:30:26;;;;;;;9.45;6.75;;;14.80;99.90;;;;;;5107451;28;20046;-64
2023/05/15 12:32:52;;;;;;;9.43;6.88;;;14.70;99.90;;;;;;5092842;28;20036;-64